sensor_id;sensor_type;location;lat;lon;timestamp;temperature;humidity
11112;DHT22;5609;49.466;8.468;2024-02-23T00:01:05;9.00;99.90
11112;DHT22;5609;49.466;8.468;2024-02-23T00:03:33;8.90;99.90
11112;DHT22;5609;49.466;8.468;2024-02-23T00:06:01;8.80;99.90
11112;DHT22;5609;49.466;8.468;2024-02-23T00:08:28;8.80;99.90
11112;DHT22;5609;49.466;8.468;2024-02-23T00:10:54;8.70;99.90
11112;DHT22;5609;49.466;8.468;2024-02-23T00:13:21;8.60;99.90
11112;DHT22;5609;49.466;8.468;2024-02-23T00:15:49;8.60;99.90
11112;DHT22;5609;49.466;8.468;2024-02-23T00:18:15;8.50;99.90
11112;DHT22;5609;49.466;8.468;2024-02-23T00:20:42;8.40;99.90
11112;DHT22;5609;49.466;8.468;2024-02-23T00:23:09;8.30;99.90
11112;DHT22;5609;49.466;8.468;2024-02-23T00:25:35;8.30;99.90
11112;DHT22;5609;49.466;8.468;2024-02-23T00:28:02;8.10;99.90
11112;DHT22;5609;49.466;8.468;2024-02-23T00:30:29;8.00;99.90
11112;DHT22;5609;49.466;8.468;2024-02-23T00:32:57;7.90;99.90
11112;DHT22;5609;49.466;8.468;2024-02-23T00:35:23;7.80;99.90
11112;DHT22;5609;49.466;8.468;2024-02-23T00:37:50;7.70;99.90
11112;DHT22;5609;49.466;8.468;2024-02-23T00:40:16;7.70;99.90
11112;DHT22;5609;49.466;8.468;2024-02-23T00:42:43;7.60;99.90
11112;DHT22;5609;49.466;8.468;2024-02-23T00:45:09;7.50;99.90
11112;DHT22;5609;49.466;8.468;2024-02-23T00:47:36;7.50;99.90
11112;DHT22;5609;49.466;8.468;2024-02-23T00:50:05;7.50;99.90
11112;DHT22;5609;49.466;8.468;2024-02-23T00:52:32;7.40;99.90
11112;DHT22;5609;49.466;8.468;2024-02-23T00:55:00;7.40;99.90
11112;DHT22;5609;49.466;8.468;2024-02-23T00:57:27;7.40;99.90
11112;DHT22;5609;49.466;8.468;2024-02-23T00:59:55;7.30;99.90
11112;DHT22;5609;49.466;8.468;2024-02-23T01:02:22;7.30;99.90
11112;DHT22;5609;49.466;8.468;2024-02-23T01:04:48;7.40;99.90
11112;DHT22;5609;49.466;8.468;2024-02-23T01:07:16;7.30;99.90
11112;DHT22;5609;49.466;8.468;2024-02-23T01:09:43;7.20;99.90
11112;DHT22;5609;49.466;8.468;2024-02-23T01:12:09;7.20;99.90
11112;DHT22;5609;49.466;8.468;2024-02-23T01:14:36;7.20;99.90
11112;DHT22;5609;49.466;8.468;2024-02-23T01:17:03;7.30;99.90
11112;DHT22;5609;49.466;8.468;2024-02-23T01:19:29;7.20;99.90
11112;DHT22;5609;49.466;8.468;2024-02-23T01:21:56;7.20;99.90
11112;DHT22;5609;49.466;8.468;2024-02-23T01:24:26;7.10;99.90
11112;DHT22;5609;49.466;8.468;2024-02-23T01:26:53;7.10;99.90
11112;DHT22;5609;49.466;8.468;2024-02-23T01:29:20;7.20;99.90
11112;DHT22;5609;49.466;8.468;2024-02-23T01:31:47;7.20;99.90
11112;DHT22;5609;49.466;8.468;2024-02-23T01:34:14;7.30;99.90
11112;DHT22;5609;49.466;8.468;2024-02-23T01:36:40;7.40;99.90
11112;DHT22;5609;49.466;8.468;2024-02-23T01:39:07;7.50;99.90
11112;DHT22;5609;49.466;8.468;2024-02-23T01:41:35;7.60;99.90
11112;DHT22;5609;49.466;8.468;2024-02-23T01:44:02;7.60;99.90
11112;DHT22;5609;49.466;8.468;2024-02-23T01:46:29;7.20;99.90
11112;DHT22;5609;49.466;8.468;2024-02-23T01:48:56;6.90;99.90
11112;DHT22;5609;49.466;8.468;2024-02-23T01:51:23;6.70;99.90
11112;DHT22;5609;49.466;8.468;2024-02-23T01:53:50;6.60;99.90
11112;DHT22;5609;49.466;8.468;2024-02-23T01:56:17;6.40;99.90
11112;DHT22;5609;49.466;8.468;2024-02-23T01:58:47;6.30;99.90
11112;DHT22;5609;49.466;8.468;2024-02-23T02:01:14;6.20;99.90
11112;DHT22;5609;49.466;8.468;2024-02-23T02:03:41;6.20;99.90
11112;DHT22;5609;49.466;8.468;2024-02-23T02:06:09;6.10;99.90
11112;DHT22;5609;49.466;8.468;2024-02-23T02:08:36;6.10;99.90
11112;DHT22;5609;49.466;8.468;2024-02-23T02:11:03;6.10;99.90
11112;DHT22;5609;49.466;8.468;2024-02-23T02:13:30;6.10;99.90
11112;DHT22;5609;49.466;8.468;2024-02-23T02:16:00;6.10;99.90
11112;DHT22;5609;49.466;8.468;2024-02-23T02:18:27;6.20;99.90
11112;DHT22;5609;49.466;8.468;2024-02-23T02:20:55;6.20;99.90
11112;DHT22;5609;49.466;8.468;2024-02-23T02:23:22;6.10;99.90
11112;DHT22;5609;49.466;8.468;2024-02-23T02:25:52;6.10;99.90
11112;DHT22;5609;49.466;8.468;2024-02-23T02:28:19;6.10;99.90
11112;DHT22;5609;49.466;8.468;2024-02-23T02:30:46;6.10;99.90
11112;DHT22;5609;49.466;8.468;2024-02-23T02:33:14;6.00;99.90
11112;DHT22;5609;49.466;8.468;2024-02-23T02:35:40;6.00;99.90
11112;DHT22;5609;49.466;8.468;2024-02-23T02:38:07;6.00;99.90
11112;DHT22;5609;49.466;8.468;2024-02-23T02:40:35;6.00;99.90
11112;DHT22;5609;49.466;8.468;2024-02-23T02:43:02;6.00;99.90
11112;DHT22;5609;49.466;8.468;2024-02-23T02:45:28;6.00;99.90
11112;DHT22;5609;49.466;8.468;2024-02-23T02:47:55;6.00;99.90
11112;DHT22;5609;49.466;8.468;2024-02-23T02:50:23;6.00;99.90
11112;DHT22;5609;49.466;8.468;2024-02-23T02:52:50;6.10;99.90
11112;DHT22;5609;49.466;8.468;2024-02-23T02:55:17;6.20;99.90
11112;DHT22;5609;49.466;8.468;2024-02-23T02:57:44;6.30;99.90
11112;DHT22;5609;49.466;8.468;2024-02-23T03:00:11;6.30;99.90
11112;DHT22;5609;49.466;8.468;2024-02-23T03:02:38;6.40;99.90
11112;DHT22;5609;49.466;8.468;2024-02-23T03:05:05;6.50;99.90
11112;DHT22;5609;49.466;8.468;2024-02-23T03:07:33;6.60;99.90
11112;DHT22;5609;49.466;8.468;2024-02-23T03:10:00;6.70;99.90
11112;DHT22;5609;49.466;8.468;2024-02-23T03:12:26;6.70;99.90
11112;DHT22;5609;49.466;8.468;2024-02-23T03:14:53;6.70;99.90
11112;DHT22;5609;49.466;8.468;2024-02-23T03:17:21;6.70;99.90
11112;DHT22;5609;49.466;8.468;2024-02-23T03:19:48;6.70;99.90
11112;DHT22;5609;49.466;8.468;2024-02-23T03:22:15;6.60;99.90
11112;DHT22;5609;49.466;8.468;2024-02-23T03:24:43;6.50;99.90
11112;DHT22;5609;49.466;8.468;2024-02-23T03:27:10;6.50;99.90
11112;DHT22;5609;49.466;8.468;2024-02-23T03:29:38;6.40;99.90
11112;DHT22;5609;49.466;8.468;2024-02-23T03:32:05;6.30;99.90
11112;DHT22;5609;49.466;8.468;2024-02-23T03:34:32;6.20;99.90
11112;DHT22;5609;49.466;8.468;2024-02-23T03:36:59;6.20;99.90
11112;DHT22;5609;49.466;8.468;2024-02-23T03:39:27;6.40;99.90
11112;DHT22;5609;49.466;8.468;2024-02-23T03:41:56;6.50;99.90
11112;DHT22;5609;49.466;8.468;2024-02-23T03:44:22;6.50;99.90
11112;DHT22;5609;49.466;8.468;2024-02-23T03:46:49;6.40;99.90
11112;DHT22;5609;49.466;8.468;2024-02-23T03:49:15;6.40;99.90
11112;DHT22;5609;49.466;8.468;2024-02-23T03:51:42;6.40;99.90
11112;DHT22;5609;49.466;8.468;2024-02-23T03:54:09;6.40;99.90
11112;DHT22;5609;49.466;8.468;2024-02-23T03:56:39;6.30;99.90
11112;DHT22;5609;49.466;8.468;2024-02-23T03:59:07;6.30;99.90
11112;DHT22;5609;49.466;8.468;2024-02-23T04:01:36;6.20;99.90
11112;DHT22;5609;49.466;8.468;2024-02-23T04:04:03;6.10;99.90
11112;DHT22;5609;49.466;8.468;2024-02-23T04:06:30;6.10;99.90
11112;DHT22;5609;49.466;8.468;2024-02-23T04:08:56;6.00;99.90
11112;DHT22;5609;49.466;8.468;2024-02-23T04:13:50;6.00;99.90
11112;DHT22;5609;49.466;8.468;2024-02-23T04:16:18;5.90;99.90
11112;DHT22;5609;49.466;8.468;2024-02-23T04:18:44;5.80;99.90
11112;DHT22;5609;49.466;8.468;2024-02-23T04:21:11;5.80;99.90
11112;DHT22;5609;49.466;8.468;2024-02-23T04:23:37;5.80;99.90
11112;DHT22;5609;49.466;8.468;2024-02-23T04:26:04;5.80;99.90
11112;DHT22;5609;49.466;8.468;2024-02-23T04:28:30;5.70;99.90
11112;DHT22;5609;49.466;8.468;2024-02-23T04:30:59;5.70;99.90
11112;DHT22;5609;49.466;8.468;2024-02-23T04:33:27;5.60;99.90
11112;DHT22;5609;49.466;8.468;2024-02-23T04:35:53;5.60;99.90
11112;DHT22;5609;49.466;8.468;2024-02-23T04:38:20;5.60;99.90
11112;DHT22;5609;49.466;8.468;2024-02-23T04:40:46;5.60;99.90
11112;DHT22;5609;49.466;8.468;2024-02-23T04:43:13;5.60;99.90
11112;DHT22;5609;49.466;8.468;2024-02-23T04:45:40;5.60;99.90
11112;DHT22;5609;49.466;8.468;2024-02-23T04:48:07;5.50;99.90
11112;DHT22;5609;49.466;8.468;2024-02-23T04:50:35;5.50;99.90
11112;DHT22;5609;49.466;8.468;2024-02-23T04:53:02;5.50;99.90
11112;DHT22;5609;49.466;8.468;2024-02-23T04:55:28;5.60;99.90
11112;DHT22;5609;49.466;8.468;2024-02-23T04:57:55;5.60;99.90
11112;DHT22;5609;49.466;8.468;2024-02-23T05:00:22;5.60;99.90
11112;DHT22;5609;49.466;8.468;2024-02-23T05:02:48;5.60;99.90
11112;DHT22;5609;49.466;8.468;2024-02-23T05:05:15;5.60;99.90
11112;DHT22;5609;49.466;8.468;2024-02-23T05:07:43;5.70;99.90
11112;DHT22;5609;49.466;8.468;2024-02-23T05:10:10;5.80;99.90
11112;DHT22;5609;49.466;8.468;2024-02-23T05:12:36;5.90;99.90
11112;DHT22;5609;49.466;8.468;2024-02-23T05:15:03;6.00;99.90
11112;DHT22;5609;49.466;8.468;2024-02-23T05:17:30;6.00;99.90
11112;DHT22;5609;49.466;8.468;2024-02-23T05:19:57;6.00;99.90
11112;DHT22;5609;49.466;8.468;2024-02-23T05:22:23;6.10;99.90
11112;DHT22;5609;49.466;8.468;2024-02-23T05:24:51;6.00;99.90
11112;DHT22;5609;49.466;8.468;2024-02-23T05:27:18;6.10;99.90
11112;DHT22;5609;49.466;8.468;2024-02-23T05:29:44;6.10;99.90
11112;DHT22;5609;49.466;8.468;2024-02-23T05:32:11;6.00;99.90
11112;DHT22;5609;49.466;8.468;2024-02-23T05:34:37;6.00;99.90
11112;DHT22;5609;49.466;8.468;2024-02-23T05:37:04;6.00;99.90
11112;DHT22;5609;49.466;8.468;2024-02-23T05:39:31;6.00;99.90
11112;DHT22;5609;49.466;8.468;2024-02-23T05:41:59;6.00;99.90
11112;DHT22;5609;49.466;8.468;2024-02-23T05:44:25;6.10;99.90
11112;DHT22;5609;49.466;8.468;2024-02-23T05:46:52;6.10;99.90
11112;DHT22;5609;49.466;8.468;2024-02-23T05:49:19;6.10;99.90
11112;DHT22;5609;49.466;8.468;2024-02-23T05:51:45;6.10;99.90
11112;DHT22;5609;49.466;8.468;2024-02-23T05:54:12;6.10;99.90
11112;DHT22;5609;49.466;8.468;2024-02-23T05:56:39;6.10;99.90
11112;DHT22;5609;49.466;8.468;2024-02-23T05:59:07;6.10;99.90
11112;DHT22;5609;49.466;8.468;2024-02-23T06:01:33;6.20;99.90
11112;DHT22;5609;49.466;8.468;2024-02-23T06:04:00;6.20;99.90
11112;DHT22;5609;49.466;8.468;2024-02-23T06:06:27;6.20;99.90
11112;DHT22;5609;49.466;8.468;2024-02-23T06:08:53;6.20;99.90
11112;DHT22;5609;49.466;8.468;2024-02-23T06:11:20;6.20;99.90
11112;DHT22;5609;49.466;8.468;2024-02-23T06:13:47;6.20;99.90
11112;DHT22;5609;49.466;8.468;2024-02-23T06:16:15;6.30;99.90
11112;DHT22;5609;49.466;8.468;2024-02-23T06:18:41;6.30;99.90
11112;DHT22;5609;49.466;8.468;2024-02-23T06:21:12;6.30;99.90
11112;DHT22;5609;49.466;8.468;2024-02-23T06:23:40;6.30;99.90
11112;DHT22;5609;49.466;8.468;2024-02-23T06:26:06;6.30;99.90
11112;DHT22;5609;49.466;8.468;2024-02-23T06:28:33;6.40;99.90
11112;DHT22;5609;49.466;8.468;2024-02-23T06:31:00;6.40;99.90
11112;DHT22;5609;49.466;8.468;2024-02-23T06:33:28;6.40;99.90
11112;DHT22;5609;49.466;8.468;2024-02-23T06:35:54;6.40;99.90
11112;DHT22;5609;49.466;8.468;2024-02-23T06:38:21;6.40;99.90
11112;DHT22;5609;49.466;8.468;2024-02-23T06:40:48;6.50;99.90
11112;DHT22;5609;49.466;8.468;2024-02-23T06:43:14;6.50;99.90
11112;DHT22;5609;49.466;8.468;2024-02-23T06:45:41;6.50;99.90
11112;DHT22;5609;49.466;8.468;2024-02-23T06:48:08;6.50;99.90
11112;DHT22;5609;49.466;8.468;2024-02-23T06:50:36;6.50;99.90
11112;DHT22;5609;49.466;8.468;2024-02-23T06:53:03;6.50;99.90
11112;DHT22;5609;49.466;8.468;2024-02-23T06:55:30;6.50;99.90
11112;DHT22;5609;49.466;8.468;2024-02-23T06:57:57;6.40;99.90
11112;DHT22;5609;49.466;8.468;2024-02-23T07:00:24;6.60;99.90
11112;DHT22;5609;49.466;8.468;2024-02-23T07:02:50;6.50;99.90
11112;DHT22;5609;49.466;8.468;2024-02-23T07:05:17;6.50;99.90
11112;DHT22;5609;49.466;8.468;2024-02-23T07:07:45;6.50;99.90
11112;DHT22;5609;49.466;8.468;2024-02-23T07:10:11;6.50;99.90
11112;DHT22;5609;49.466;8.468;2024-02-23T07:12:38;6.50;99.90
11112;DHT22;5609;49.466;8.468;2024-02-23T07:15:05;6.40;99.90
11112;DHT22;5609;49.466;8.468;2024-02-23T07:17:32;6.30;99.90
11112;DHT22;5609;49.466;8.468;2024-02-23T07:19:59;6.30;99.90
11112;DHT22;5609;49.466;8.468;2024-02-23T07:22:31;6.30;99.90
11112;DHT22;5609;49.466;8.468;2024-02-23T07:24:58;6.30;99.90
11112;DHT22;5609;49.466;8.468;2024-02-23T07:27:27;6.30;99.90
11112;DHT22;5609;49.466;8.468;2024-02-23T07:29:53;6.40;99.90
11112;DHT22;5609;49.466;8.468;2024-02-23T07:32:20;6.40;99.90
11112;DHT22;5609;49.466;8.468;2024-02-23T07:34:46;6.40;99.90
11112;DHT22;5609;49.466;8.468;2024-02-23T07:37:13;6.30;99.90
11112;DHT22;5609;49.466;8.468;2024-02-23T07:39:40;6.40;99.90
11112;DHT22;5609;49.466;8.468;2024-02-23T07:42:08;6.40;99.90
11112;DHT22;5609;49.466;8.468;2024-02-23T07:44:36;6.50;99.90
11112;DHT22;5609;49.466;8.468;2024-02-23T07:47:03;6.50;99.90
11112;DHT22;5609;49.466;8.468;2024-02-23T07:49:29;6.60;99.90
11112;DHT22;5609;49.466;8.468;2024-02-23T07:51:56;6.70;99.90
11112;DHT22;5609;49.466;8.468;2024-02-23T07:54:23;6.80;99.90
11112;DHT22;5609;49.466;8.468;2024-02-23T07:56:49;7.00;99.90
11112;DHT22;5609;49.466;8.468;2024-02-23T07:59:17;7.20;99.90
11112;DHT22;5609;49.466;8.468;2024-02-23T08:01:44;7.30;99.90
11112;DHT22;5609;49.466;8.468;2024-02-23T08:04:10;7.40;99.90
11112;DHT22;5609;49.466;8.468;2024-02-23T08:06:39;7.50;99.90
11112;DHT22;5609;49.466;8.468;2024-02-23T08:09:05;7.50;99.90
11112;DHT22;5609;49.466;8.468;2024-02-23T08:11:33;7.50;99.90
11112;DHT22;5609;49.466;8.468;2024-02-23T08:13:59;7.50;99.90
11112;DHT22;5609;49.466;8.468;2024-02-23T08:16:28;7.60;99.90
11112;DHT22;5609;49.466;8.468;2024-02-23T08:18:54;7.60;99.90
11112;DHT22;5609;49.466;8.468;2024-02-23T08:21:21;7.60;99.90
11112;DHT22;5609;49.466;8.468;2024-02-23T08:23:47;7.70;99.90
11112;DHT22;5609;49.466;8.468;2024-02-23T08:26:14;7.70;99.90
11112;DHT22;5609;49.466;8.468;2024-02-23T08:28:41;7.70;99.90
11112;DHT22;5609;49.466;8.468;2024-02-23T08:31:07;7.80;99.90
11112;DHT22;5609;49.466;8.468;2024-02-23T08:33:35;7.90;99.90
11112;DHT22;5609;49.466;8.468;2024-02-23T08:36:02;7.90;99.90
11112;DHT22;5609;49.466;8.468;2024-02-23T08:38:31;8.00;99.90
11112;DHT22;5609;49.466;8.468;2024-02-23T08:40:57;8.10;99.90
11112;DHT22;5609;49.466;8.468;2024-02-23T08:43:24;8.20;99.90
11112;DHT22;5609;49.466;8.468;2024-02-23T08:45:51;8.20;99.90
11112;DHT22;5609;49.466;8.468;2024-02-23T08:48:17;8.20;99.90
11112;DHT22;5609;49.466;8.468;2024-02-23T08:50:45;8.30;99.90
11112;DHT22;5609;49.466;8.468;2024-02-23T08:53:12;8.40;99.90
11112;DHT22;5609;49.466;8.468;2024-02-23T08:55:38;8.40;99.90
11112;DHT22;5609;49.466;8.468;2024-02-23T08:58:05;8.50;99.90
11112;DHT22;5609;49.466;8.468;2024-02-23T09:00:32;8.60;99.90
11112;DHT22;5609;49.466;8.468;2024-02-23T09:02:58;8.70;99.90
11112;DHT22;5609;49.466;8.468;2024-02-23T09:05:25;8.80;99.90
11112;DHT22;5609;49.466;8.468;2024-02-23T09:07:53;8.90;99.90
11112;DHT22;5609;49.466;8.468;2024-02-23T09:10:19;9.00;99.90
11112;DHT22;5609;49.466;8.468;2024-02-23T09:12:46;9.00;99.90
11112;DHT22;5609;49.466;8.468;2024-02-23T09:15:13;9.10;99.90
11112;DHT22;5609;49.466;8.468;2024-02-23T09:17:40;9.00;99.90
11112;DHT22;5609;49.466;8.468;2024-02-23T09:20:07;8.90;99.90
11112;DHT22;5609;49.466;8.468;2024-02-23T09:22:34;8.90;99.90
11112;DHT22;5609;49.466;8.468;2024-02-23T09:25:02;9.00;99.90
11112;DHT22;5609;49.466;8.468;2024-02-23T09:27:30;9.00;99.90
11112;DHT22;5609;49.466;8.468;2024-02-23T09:29:57;9.10;99.90
11112;DHT22;5609;49.466;8.468;2024-02-23T09:32:24;9.10;99.90
11112;DHT22;5609;49.466;8.468;2024-02-23T09:34:50;9.10;99.90
11112;DHT22;5609;49.466;8.468;2024-02-23T09:37:17;9.10;99.90
11112;DHT22;5609;49.466;8.468;2024-02-23T09:39:43;9.10;99.90
11112;DHT22;5609;49.466;8.468;2024-02-23T09:42:11;9.30;99.90
11112;DHT22;5609;49.466;8.468;2024-02-23T09:44:39;9.50;99.90
11112;DHT22;5609;49.466;8.468;2024-02-23T09:47:08;9.50;99.90
11112;DHT22;5609;49.466;8.468;2024-02-23T09:49:38;9.60;99.90
11112;DHT22;5609;49.466;8.468;2024-02-23T09:52:07;9.70;99.90
11112;DHT22;5609;49.466;8.468;2024-02-23T09:54:34;9.90;99.90
11112;DHT22;5609;49.466;8.468;2024-02-23T09:57:03;10.00;99.90
11112;DHT22;5609;49.466;8.468;2024-02-23T09:59:34;9.90;99.90
11112;DHT22;5609;49.466;8.468;2024-02-23T10:02:01;9.90;99.90
11112;DHT22;5609;49.466;8.468;2024-02-23T10:04:28;10.00;99.90
11112;DHT22;5609;49.466;8.468;2024-02-23T10:06:54;10.00;99.90
11112;DHT22;5609;49.466;8.468;2024-02-23T10:09:21;10.00;99.90
11112;DHT22;5609;49.466;8.468;2024-02-23T10:11:52;9.90;99.90
11112;DHT22;5609;49.466;8.468;2024-02-23T10:14:19;10.30;99.90
11112;DHT22;5609;49.466;8.468;2024-02-23T10:16:47;10.70;99.90
11112;DHT22;5609;49.466;8.468;2024-02-23T10:19:18;11.10;99.90
11112;DHT22;5609;49.466;8.468;2024-02-23T10:21:45;11.60;99.90
11112;DHT22;5609;49.466;8.468;2024-02-23T10:24:11;11.60;99.90
11112;DHT22;5609;49.466;8.468;2024-02-23T10:26:38;11.80;99.90
11112;DHT22;5609;49.466;8.468;2024-02-23T10:29:05;12.00;99.90
11112;DHT22;5609;49.466;8.468;2024-02-23T10:31:34;12.00;99.90
11112;DHT22;5609;49.466;8.468;2024-02-23T10:34:07;12.10;99.90
11112;DHT22;5609;49.466;8.468;2024-02-23T10:36:36;11.90;99.40
11112;DHT22;5609;49.466;8.468;2024-02-23T10:39:04;12.10;99.90
11112;DHT22;5609;49.466;8.468;2024-02-23T10:41:34;12.50;99.20
11112;DHT22;5609;49.466;8.468;2024-02-23T10:44:02;12.20;97.70
11112;DHT22;5609;49.466;8.468;2024-02-23T10:46:30;12.00;97.90
11112;DHT22;5609;49.466;8.468;2024-02-23T10:48:58;12.00;99.90
11112;DHT22;5609;49.466;8.468;2024-02-23T10:51:27;12.00;99.90
11112;DHT22;5609;49.466;8.468;2024-02-23T10:53:55;11.70;99.90
11112;DHT22;5609;49.466;8.468;2024-02-23T10:56:22;11.80;99.90
11112;DHT22;5609;49.466;8.468;2024-02-23T10:58:51;11.80;99.90
11112;DHT22;5609;49.466;8.468;2024-02-23T11:01:18;11.80;99.90
11112;DHT22;5609;49.466;8.468;2024-02-23T11:03:46;11.60;99.90
11112;DHT22;5609;49.466;8.468;2024-02-23T11:06:16;11.70;99.90
11112;DHT22;5609;49.466;8.468;2024-02-23T11:08:47;11.90;99.90
11112;DHT22;5609;49.466;8.468;2024-02-23T11:11:16;11.90;99.90
11112;DHT22;5609;49.466;8.468;2024-02-23T11:13:44;11.60;99.90
11112;DHT22;5609;49.466;8.468;2024-02-23T11:16:21;11.50;99.90
11112;DHT22;5609;49.466;8.468;2024-02-23T11:18:48;11.50;99.90
11112;DHT22;5609;49.466;8.468;2024-02-23T11:21:15;11.60;99.90
11112;DHT22;5609;49.466;8.468;2024-02-23T11:23:41;11.50;99.90
11112;DHT22;5609;49.466;8.468;2024-02-23T11:26:11;11.50;99.90
11112;DHT22;5609;49.466;8.468;2024-02-23T11:28:42;11.50;99.90
11112;DHT22;5609;49.466;8.468;2024-02-23T11:31:13;11.70;99.90
11112;DHT22;5609;49.466;8.468;2024-02-23T11:33:40;11.80;99.90
11112;DHT22;5609;49.466;8.468;2024-02-23T11:36:07;11.80;99.90
11112;DHT22;5609;49.466;8.468;2024-02-23T11:38:34;11.70;99.90
11112;DHT22;5609;49.466;8.468;2024-02-23T11:41:02;11.70;99.90
11112;DHT22;5609;49.466;8.468;2024-02-23T11:43:34;11.90;99.90
11112;DHT22;5609;49.466;8.468;2024-02-23T11:46:01;11.80;99.90
11112;DHT22;5609;49.466;8.468;2024-02-23T11:48:27;11.70;99.90
11112;DHT22;5609;49.466;8.468;2024-02-23T11:50:54;11.70;99.90
11112;DHT22;5609;49.466;8.468;2024-02-23T11:53:22;11.50;99.90
11112;DHT22;5609;49.466;8.468;2024-02-23T11:55:51;11.40;99.90
11112;DHT22;5609;49.466;8.468;2024-02-23T11:58:18;11.30;99.90
11112;DHT22;5609;49.466;8.468;2024-02-23T12:00:46;11.20;99.90
11112;DHT22;5609;49.466;8.468;2024-02-23T12:03:13;11.30;99.90
11112;DHT22;5609;49.466;8.468;2024-02-23T12:05:40;11.20;99.90
11112;DHT22;5609;49.466;8.468;2024-02-23T12:08:06;11.30;99.90
11112;DHT22;5609;49.466;8.468;2024-02-23T12:10:33;11.40;99.90
11112;DHT22;5609;49.466;8.468;2024-02-23T12:13:01;11.40;99.90
11112;DHT22;5609;49.466;8.468;2024-02-23T12:15:28;11.60;99.90
11112;DHT22;5609;49.466;8.468;2024-02-23T12:17:57;11.60;99.90
11112;DHT22;5609;49.466;8.468;2024-02-23T12:20:24;11.60;99.90
11112;DHT22;5609;49.466;8.468;2024-02-23T12:22:51;11.60;99.90
11112;DHT22;5609;49.466;8.468;2024-02-23T12:25:20;11.60;99.90
11112;DHT22;5609;49.466;8.468;2024-02-23T12:27:54;11.40;99.90
11112;DHT22;5609;49.466;8.468;2024-02-23T12:30:20;11.00;99.90
11112;DHT22;5609;49.466;8.468;2024-02-23T12:32:47;10.80;99.90
11112;DHT22;5609;49.466;8.468;2024-02-23T12:35:15;11.00;99.90
11112;DHT22;5609;49.466;8.468;2024-02-23T12:37:43;11.60;99.90
11112;DHT22;5609;49.466;8.468;2024-02-23T12:40:11;11.70;99.90
11112;DHT22;5609;49.466;8.468;2024-02-23T12:42:37;11.90;99.90
11112;DHT22;5609;49.466;8.468;2024-02-23T12:45:04;11.70;99.90
11112;DHT22;5609;49.466;8.468;2024-02-23T12:47:31;11.90;99.90
11112;DHT22;5609;49.466;8.468;2024-02-23T12:49:57;12.00;99.90
11112;DHT22;5609;49.466;8.468;2024-02-23T12:52:26;11.90;99.90
11112;DHT22;5609;49.466;8.468;2024-02-23T12:54:52;11.90;99.90
11112;DHT22;5609;49.466;8.468;2024-02-23T12:57:19;12.20;99.90
11112;DHT22;5609;49.466;8.468;2024-02-23T12:59:45;12.90;99.90
11112;DHT22;5609;49.466;8.468;2024-02-23T13:02:12;13.40;99.90
11112;DHT22;5609;49.466;8.468;2024-02-23T13:04:39;13.70;99.90
11112;DHT22;5609;49.466;8.468;2024-02-23T13:07:06;13.50;99.90
11112;DHT22;5609;49.466;8.468;2024-02-23T13:09:34;13.00;99.90
11112;DHT22;5609;49.466;8.468;2024-02-23T13:12:00;12.80;99.90
11112;DHT22;5609;49.466;8.468;2024-02-23T13:14:27;12.70;99.90
11112;DHT22;5609;49.466;8.468;2024-02-23T13:16:53;12.70;99.90
11112;DHT22;5609;49.466;8.468;2024-02-23T13:19:20;12.60;99.90
11112;DHT22;5609;49.466;8.468;2024-02-23T13:21:46;12.70;99.90
11112;DHT22;5609;49.466;8.468;2024-02-23T13:24:13;12.70;99.90
11112;DHT22;5609;49.466;8.468;2024-02-23T13:26:41;13.30;99.90
11112;DHT22;5609;49.466;8.468;2024-02-23T13:29:07;14.00;93.20
11112;DHT22;5609;49.466;8.468;2024-02-23T13:31:34;14.40;90.00
11112;DHT22;5609;49.466;8.468;2024-02-23T13:34:01;14.10;82.30
11112;DHT22;5609;49.466;8.468;2024-02-23T13:36:27;13.80;83.90
11112;DHT22;5609;49.466;8.468;2024-02-23T13:38:54;13.20;91.10
11112;DHT22;5609;49.466;8.468;2024-02-23T13:41:21;12.80;92.50
11112;DHT22;5609;49.466;8.468;2024-02-23T13:43:49;12.60;97.40
11112;DHT22;5609;49.466;8.468;2024-02-23T13:46:15;12.40;95.60
11112;DHT22;5609;49.466;8.468;2024-02-23T13:48:42;12.20;98.90
11112;DHT22;5609;49.466;8.468;2024-02-23T13:51:09;12.10;99.90
11112;DHT22;5609;49.466;8.468;2024-02-23T13:53:35;11.90;99.90
11112;DHT22;5609;49.466;8.468;2024-02-23T13:56:03;11.90;99.90
11112;DHT22;5609;49.466;8.468;2024-02-23T13:58:30;11.80;99.90
11112;DHT22;5609;49.466;8.468;2024-02-23T14:00:58;12.00;99.90
11112;DHT22;5609;49.466;8.468;2024-02-23T14:03:24;12.40;99.90
11112;DHT22;5609;49.466;8.468;2024-02-23T14:05:51;12.60;99.90
11112;DHT22;5609;49.466;8.468;2024-02-23T14:08:17;12.60;99.90
11112;DHT22;5609;49.466;8.468;2024-02-23T14:10:44;12.40;99.90
11112;DHT22;5609;49.466;8.468;2024-02-23T14:13:11;12.00;99.90
11112;DHT22;5609;49.466;8.468;2024-02-23T14:15:38;11.90;99.90
11112;DHT22;5609;49.466;8.468;2024-02-23T14:18:06;11.60;99.90
11112;DHT22;5609;49.466;8.468;2024-02-23T14:20:32;11.60;99.90
11112;DHT22;5609;49.466;8.468;2024-02-23T14:22:59;11.60;99.90
11112;DHT22;5609;49.466;8.468;2024-02-23T14:25:25;11.00;99.90
11112;DHT22;5609;49.466;8.468;2024-02-23T14:27:52;10.80;99.90
11112;DHT22;5609;49.466;8.468;2024-02-23T14:30:20;10.90;99.90
11112;DHT22;5609;49.466;8.468;2024-02-23T14:32:47;10.90;99.90
11112;DHT22;5609;49.466;8.468;2024-02-23T14:35:16;11.00;99.90
11112;DHT22;5609;49.466;8.468;2024-02-23T14:37:42;11.10;99.90
11112;DHT22;5609;49.466;8.468;2024-02-23T14:40:10;11.20;99.90
11112;DHT22;5609;49.466;8.468;2024-02-23T14:42:37;11.00;99.90
11112;DHT22;5609;49.466;8.468;2024-02-23T14:45:06;10.90;99.90
11112;DHT22;5609;49.466;8.468;2024-02-23T14:47:33;11.20;99.90
11112;DHT22;5609;49.466;8.468;2024-02-23T14:50:00;12.50;99.90
11112;DHT22;5609;49.466;8.468;2024-02-23T14:52:28;14.30;99.90
11112;DHT22;5609;49.466;8.468;2024-02-23T14:54:54;16.00;99.90
11112;DHT22;5609;49.466;8.468;2024-02-23T14:57:21;17.40;99.80
11112;DHT22;5609;49.466;8.468;2024-02-23T14:59:48;18.10;60.60
11112;DHT22;5609;49.466;8.468;2024-02-23T15:02:19;17.40;97.40
11112;DHT22;5609;49.466;8.468;2024-02-23T15:04:46;16.90;99.90
11112;DHT22;5609;49.466;8.468;2024-02-23T15:07:13;16.20;99.90
11112;DHT22;5609;49.466;8.468;2024-02-23T15:09:41;15.90;99.90
11112;DHT22;5609;49.466;8.468;2024-02-23T15:12:08;15.60;99.90
11112;DHT22;5609;49.466;8.468;2024-02-23T15:14:34;15.50;99.90
11112;DHT22;5609;49.466;8.468;2024-02-23T15:17:01;15.50;99.90
11112;DHT22;5609;49.466;8.468;2024-02-23T15:19:28;15.50;99.90
11112;DHT22;5609;49.466;8.468;2024-02-23T15:21:54;15.40;99.90
11112;DHT22;5609;49.466;8.468;2024-02-23T15:24:21;15.50;99.90
11112;DHT22;5609;49.466;8.468;2024-02-23T15:41:33;16.10;99.90
11112;DHT22;5609;49.466;8.468;2024-02-23T15:44:01;20.20;53.00
11112;DHT22;5609;49.466;8.468;2024-02-23T15:46:29;19.70;76.10
11112;DHT22;5609;49.466;8.468;2024-02-23T15:48:56;19.20;91.80
11112;DHT22;5609;49.466;8.468;2024-02-23T15:51:23;18.40;95.60
11112;DHT22;5609;49.466;8.468;2024-02-23T15:53:49;17.80;96.10
11112;DHT22;5609;49.466;8.468;2024-02-23T15:56:16;17.10;99.90
11112;DHT22;5609;49.466;8.468;2024-02-23T15:58:43;16.70;99.90
11112;DHT22;5609;49.466;8.468;2024-02-23T16:01:11;16.30;99.90
11112;DHT22;5609;49.466;8.468;2024-02-23T16:03:37;16.00;99.90
11112;DHT22;5609;49.466;8.468;2024-02-23T16:06:04;15.80;99.90
11112;DHT22;5609;49.466;8.468;2024-02-23T16:08:41;15.60;99.90
11112;DHT22;5609;49.466;8.468;2024-02-23T16:11:08;15.70;99.90